Time;durP1;ratioP1;P1;durP2;ratioP2;P2;SDS_P1;SDS_P2;PMS_P1;PMS_P2;Temp;Humidity;BMP_temperature;BMP_pressure;BME280_temperature;BME280_humidity;BME280_pressure;Samples;Min_cycle;Max_cycle;Signal;HPM_P1;HPM_P2
2021/07/17 00:00:12;;;;;;;0.40;0.20;;;;;;;17.25;100.00;100918.47;5044787;28;21012;-76
2021/07/17 00:02:39;;;;;;;0.43;0.33;;;;;;;17.25;100.00;100917.63;5042428;28;20444;-77
2021/07/17 00:05:09;;;;;;;0.40;0.20;;;;;;;17.32;100.00;100913.72;5030432;28;20448;-76
2021/07/17 00:07:37;;;;;;;0.40;0.30;;;;;;;17.32;100.00;100913.72;5030559;28;20483;-77
2021/07/17 00:10:08;;;;;;;0.40;0.30;;;;;;;17.23;100.00;100909.63;5031581;28;21036;-77
2021/07/17 00:12:35;;;;;;;0.40;0.30;;;;;;;17.12;100.00;100909.25;5021028;28;20435;-77
2021/07/17 00:15:03;;;;;;;0.43;0.37;;;;;;;17.11;100.00;100911.06;5060748;28;20484;-77
2021/07/17 00:17:30;;;;;;;3.43;0.87;;;;;;;17.16;100.00;100905.50;5032226;28;20418;-77
2021/07/17 00:19:56;;;;;;;0.50;0.50;;;;;;;17.13;100.00;100910.97;5032037;28;20464;-77
2021/07/17 00:22:23;;;;;;;0.40;0.20;;;;;;;17.14;100.00;100910.06;5032113;28;20873;-76
2021/07/17 00:24:50;;;;;;;0.40;0.20;;;;;;;17.05;100.00;100903.28;5031731;28;20443;-77
2021/07/17 00:27:16;;;;;;;0.67;0.67;;;;;;;17.18;100.00;100903.59;5030632;28;20492;-77
2021/07/17 00:29:45;;;;;;;2.30;0.93;;;;;;;17.18;100.00;100908.97;5018666;28;20438;-78
2021/07/17 00:32:12;;;;;;;0.43;0.30;;;;;;;17.49;100.00;100900.34;5030566;28;20469;-77
2021/07/17 00:34:38;;;;;;;0.60;0.57;;;;;;;17.38;100.00;100902.66;5031854;28;20427;-76
2021/07/17 00:37:05;;;;;;;0.50;0.40;;;;;;;17.48;100.00;100898.59;5030614;28;20430;-77
2021/07/17 00:39:33;;;;;;;0.40;0.20;;;;;;;17.49;100.00;100903.03;5033630;28;20530;-77
2021/07/17 00:41:59;;;;;;;0.40;0.20;;;;;;;17.41;100.00;100891.78;5034355;28;20455;-77
2021/07/17 00:44:27;;;;;;;2.27;2.23;;;;;;;17.27;100.00;100905.88;5035514;28;20451;-77
2021/07/17 00:46:58;;;;;;;0.47;0.37;;;;;;;17.24;100.00;100892.56;5023077;28;20449;-76
2021/07/17 00:49:29;;;;;;;1.47;1.47;;;;;;;17.21;100.00;100887.34;5060515;28;20471;-77
2021/07/17 00:51:56;;;;;;;0.50;0.40;;;;;;;17.20;100.00;100899.03;5034601;28;20460;-77
2021/07/17 00:54:27;;;;;;;0.60;0.60;;;;;;;17.15;100.00;100899.25;5060041;28;20936;-77
2021/07/17 00:56:54;;;;;;;0.50;0.50;;;;;;;17.16;100.00;100903.69;5027826;28;20451;-77
2021/07/17 00:59:23;;;;;;;0.40;0.20;;;;;;;17.16;100.00;100906.38;5035235;28;20449;-77
2021/07/17 01:01:53;;;;;;;1.57;1.07;;;;;;;17.15;100.00;100906.44;5035101;28;20445;-77
2021/07/17 01:04:22;;;;;;;0.40;0.30;;;;;;;17.14;100.00;100902.88;5026333;28;20449;-76
2021/07/17 01:06:49;;;;;;;0.40;0.30;;;;;;;17.16;100.00;100890.25;5030459;28;20444;-77
2021/07/17 01:09:15;;;;;;;0.50;0.37;;;;;;;17.38;100.00;100891.91;5025995;28;20467;-77
2021/07/17 01:11:42;;;;;;;1.80;1.70;;;;;;;17.47;100.00;100891.50;5030211;28;20493;-77
2021/07/17 01:14:09;;;;;;;4.00;0.77;;;;;;;17.77;100.00;100889.19;5034013;28;20414;-78
2021/07/17 01:16:38;;;;;;;1.17;1.07;;;;;;;17.79;100.00;100884.59;5035579;28;20447;-77
2021/07/17 01:19:09;;;;;;;0.83;0.83;;;;;;;18.07;100.00;100889.47;5033643;28;20968;-77
2021/07/17 01:21:36;;;;;;;0.97;0.97;;;;;;;17.87;100.00;100892.28;5034735;28;20444;-78
2021/07/17 01:24:03;;;;;;;0.50;0.40;;;;;;;17.68;100.00;100876.13;5033687;28;20479;-77
2021/07/17 01:26:30;;;;;;;3.17;1.30;;;;;;;18.00;100.00;100890.75;5034566;28;20486;-76
2021/07/17 01:28:57;;;;;;;1.77;1.37;;;;;;;17.86;100.00;100883.34;5033438;28;20544;-77
2021/07/17 01:31:24;;;;;;;0.40;0.30;;;;;;;17.98;100.00;100884.56;5034698;28;20806;-77
2021/07/17 01:33:50;;;;;;;0.40;0.20;;;;;;;17.96;100.00;100889.16;5041317;28;20460;-77
2021/07/17 01:36:17;;;;;;;0.40;0.30;;;;;;;17.93;100.00;100884.78;5033926;28;20419;-77
2021/07/17 01:38:44;;;;;;;0.40;0.20;;;;;;;18.05;100.00;100876.09;5041784;28;20456;-77
2021/07/17 01:41:10;;;;;;;0.40;0.20;;;;;;;18.05;100.00;100876.09;5034295;28;20446;-77
2021/07/17 01:43:37;;;;;;;0.40;0.30;;;;;;;18.12;100.00;100865.03;5021104;28;20514;-76
2021/07/17 01:46:04;;;;;;;3.43;1.93;;;;;;;18.13;100.00;100886.50;5059877;28;20547;-78
2021/07/17 01:48:30;;;;;;;29.90;1.53;;;;;;;18.23;100.00;100885.09;5013169;28;20533;-77
2021/07/17 01:50:57;;;;;;;0.43;0.37;;;;;;;18.47;100.00;100885.63;5033278;28;20508;-77
2021/07/17 01:53:24;;;;;;;1.27;1.23;;;;;;;18.31;100.00;100877.47;5053710;28;20456;-78
2021/07/17 01:55:50;;;;;;;0.70;0.70;;;;;;;18.29;100.00;100879.38;5059190;28;20453;-77
2021/07/17 01:58:17;;;;;;;3.30;0.60;;;;;;;18.33;100.00;100874.69;5025953;28;20444;-77
2021/07/17 02:00:44;;;;;;;0.50;0.50;;;;;;;18.30;100.00;100866.78;5034221;28;20458;-76
2021/07/17 02:03:11;;;;;;;0.50;0.43;;;;;;;18.38;100.00;100867.28;5032858;28;20432;-77
2021/07/17 02:05:38;;;;;;;0.40;0.20;;;;;;;18.43;100.00;100867.03;5033884;28;20947;-77
2021/07/17 02:08:05;;;;;;;1.30;1.20;;;;;;;18.45;100.00;100862.44;5032847;28;20980;-77
2021/07/17 02:10:34;;;;;;;0.47;0.37;;;;;;;18.34;100.00;100858.47;5032427;28;20943;-76
2021/07/17 02:13:12;;;;;;;1.13;1.03;;;;;;;18.43;100.00;100854.44;5033792;28;20514;-77
2021/07/17 02:15:45;;;;;;;0.50;0.40;;;;;;;18.37;100.00;100857.47;5032762;28;20492;-76
2021/07/17 02:18:13;;;;;;;0.50;0.40;;;;;;;18.34;100.00;100854.91;5031344;28;20460;-76
2021/07/17 02:20:41;;;;;;;0.40;0.30;;;;;;;18.30;100.00;100858.72;5024144;28;20497;-76
2021/07/17 02:23:10;;;;;;;0.40;0.20;;;;;;;18.35;100.00;100862.91;5033625;28;20484;-77
2021/07/17 02:25:37;;;;;;;0.40;0.20;;;;;;;18.33;100.00;100854.03;5033655;28;20419;-76
2021/07/17 02:28:04;;;;;;;1.93;0.70;;;;;;;18.42;100.00;100835.69;5031956;28;20462;-77
2021/07/17 02:30:30;;;;;;;0.97;0.60;;;;;;;18.47;100.00;100844.38;5033142;28;20509;-76
2021/07/17 02:32:57;;;;;;;1.47;1.37;;;;;;;18.53;100.00;100844.06;5033284;28;20444;-77
2021/07/17 02:35:24;;;;;;;1.23;1.17;;;;;;;18.48;100.00;100836.22;5032523;28;20501;-77
2021/07/17 02:37:51;;;;;;;0.43;0.30;;;;;;;18.63;100.00;100834.53;5033291;28;20444;-77
2021/07/17 02:40:18;;;;;;;0.40;0.30;;;;;;;18.55;100.00;100839.47;5032047;28;20967;-77
2021/07/17 02:42:45;;;;;;;5.17;2.73;;;;;;;18.74;100.00;100829.47;5032015;28;20427;-77
2021/07/17 02:45:12;;;;;;;4.53;2.10;;;;;;;18.70;100.00;100837.81;5031879;28;20523;-77
2021/07/17 02:47:39;;;;;;;0.53;0.53;;;;;;;18.39;100.00;100842.09;5031963;28;20419;-77
2021/07/17 02:50:06;;;;;;;0.67;0.67;;;;;;;18.46;100.00;100831.88;5033396;28;20446;-76
2021/07/17 02:52:33;;;;;;;0.40;0.20;;;;;;;18.68;100.00;100842.41;5032932;28;20422;-77
2021/07/17 02:55:00;;;;;;;0.40;0.20;;;;;;;18.58;100.00;100842.00;5032220;28;20444;-77
2021/07/17 02:57:27;;;;;;;13.10;2.00;;;;;;;18.77;100.00;100842.78;5031522;28;20423;-76
2021/07/17 02:59:54;;;;;;;0.40;0.20;;;;;;;18.67;100.00;100840.69;5032691;28;20790;-76
2021/07/17 03:02:21;;;;;;;2.87;0.87;;;;;;;18.79;100.00;100837.34;5019404;28;20418;-77
2021/07/17 03:04:48;;;;;;;0.50;0.40;;;;;;;18.67;100.00;100836.16;5032457;28;20434;-76
2021/07/17 03:07:15;;;;;;;0.87;0.70;;;;;;;18.57;100.00;100842.94;5033720;28;20456;-76
2021/07/17 03:09:42;;;;;;;0.40;0.20;;;;;;;18.68;100.00;100839.72;5033394;28;20496;-76
2021/07/17 03:12:08;;;;;;;0.40;0.20;;;;;;;18.73;100.00;100837.66;5033441;28;20444;-77
2021/07/17 03:14:35;;;;;;;14.30;0.80;;;;;;;18.68;100.00;100843.28;5031685;28;20501;-76
2021/07/17 03:17:02;;;;;;;0.80;0.73;;;;;;;18.80;100.00;100841.78;5047124;28;20970;-76
2021/07/17 03:19:29;;;;;;;0.50;0.40;;;;;;;18.77;100.00;100837.38;5019877;28;20471;-77
2021/07/17 03:21:56;;;;;;;0.40;0.20;;;;;;;18.64;100.00;100831.81;5033850;28;20462;-77
2021/07/17 03:24:23;;;;;;;0.90;0.77;;;;;;;18.58;100.00;100840.16;5057584;28;20446;-77
2021/07/17 03:26:49;;;;;;;0.50;0.40;;;;;;;18.61;100.00;100837.31;5052979;28;20448;-76
2021/07/17 03:29:16;;;;;;;0.40;0.20;;;;;;;18.63;100.00;100838.13;5018378;28;20479;-76
2021/07/17 03:31:43;;;;;;;0.40;0.20;;;;;;;18.71;100.00;100850.34;5024519;28;20422;-76
2021/07/17 03:34:10;;;;;;;0.70;0.50;;;;;;;18.64;100.00;100847.97;5025223;28;20931;-76
2021/07/17 03:36:37;;;;;;;0.90;0.90;;;;;;;18.60;100.00;100849.03;5020338;28;20523;-76
2021/07/17 03:39:04;;;;;;;0.50;0.30;;;;;;;18.64;100.00;100850.66;5018466;28;20543;-76
2021/07/17 03:41:32;;;;;;;1.60;1.60;;;;;;;18.73;100.00;100853.81;5023458;28;20787;-76
2021/07/17 03:43:59;;;;;;;1.43;1.27;;;;;;;18.77;100.00;100844.59;5024444;28;20418;-76
2021/07/17 03:46:26;;;;;;;0.40;0.40;;;;;;;18.76;100.00;100857.19;5021401;28;20942;-76
2021/07/17 03:48:53;;;;;;;0.97;0.97;;;;;;;18.81;100.00;100860.53;5017170;28;20489;-76
2021/07/17 03:51:19;;;;;;;0.40;0.20;;;;;;;18.58;100.00;100861.72;5028426;28;20945;-76
2021/07/17 03:53:46;;;;;;;5.70;1.40;;;;;;;18.71;100.00;100858.41;5061117;28;20525;-76
2021/07/17 03:56:12;;;;;;;0.50;0.50;;;;;;;18.52;100.00;100853.97;5014514;28;20435;-76
2021/07/17 03:58:39;;;;;;;0.40;0.30;;;;;;;18.61;100.00;100853.47;5015547;28;20419;-76
2021/07/17 04:01:06;;;;;;;1.53;1.07;;;;;;;18.68;100.00;100854.06;5030607;28;20553;-76
2021/07/17 04:03:33;;;;;;;2.10;1.07;;;;;;;18.82;100.00;100856.03;5031126;28;20502;-76
2021/07/17 04:06:01;;;;;;;0.60;0.60;;;;;;;18.83;100.00;100855.94;5032725;28;20527;-77
2021/07/17 04:08:27;;;;;;;0.40;0.20;;;;;;;19.04;100.00;100842.25;5030641;28;20487;-76
2021/07/17 04:10:54;;;;;;;0.40;0.20;;;;;;;18.93;100.00;100856.31;5032462;28;20475;-77
2021/07/17 04:13:21;;;;;;;1.03;1.03;;;;;;;18.86;100.00;100855.75;5033432;28;20426;-76
2021/07/17 04:15:47;;;;;;;0.40;0.30;;;;;;;18.89;100.00;100857.41;5034838;28;20451;-76
2021/07/17 04:18:14;;;;;;;3.17;0.80;;;;;;;18.67;100.00;100863.09;5034665;28;20870;-77
2021/07/17 04:20:41;;;;;;;0.40;0.30;;;;;;;18.68;100.00;100861.28;5035376;28;20493;-76
2021/07/17 04:23:08;;;;;;;5.57;0.80;;;;;;;18.70;100.00;100870.13;5037392;28;20463;-77
2021/07/17 04:25:35;;;;;;;0.40;0.30;;;;;;;18.83;100.00;100869.41;5036345;28;20451;-76
2021/07/17 04:28:02;;;;;;;2.70;2.50;;;;;;;18.75;100.00;100863.53;5033595;28;20514;-77
2021/07/17 04:30:28;;;;;;;0.40;0.30;;;;;;;18.60;100.00;100864.31;5034995;28;20542;-77
2021/07/17 04:32:55;;;;;;;0.53;0.53;;;;;;;18.71;100.00;100856.59;5034850;28;20463;-77
2021/07/17 04:35:22;;;;;;;1.50;0.60;;;;;;;18.82;100.00;100862.28;5034364;28;20451;-78
2021/07/17 04:37:49;;;;;;;0.40;0.30;;;;;;;18.84;100.00;100856.81;5029809;28;20591;-77
2021/07/17 04:40:16;;;;;;;0.40;0.20;;;;;;;18.87;100.00;100862.03;5046989;28;20459;-77
2021/07/17 04:42:43;;;;;;;0.40;0.20;;;;;;;18.78;100.00;100863.41;5028811;28;20435;-77
2021/07/17 04:45:10;;;;;;;0.40;0.20;;;;;;;18.74;100.00;100874.41;5021640;28;20439;-77
2021/07/17 04:47:37;;;;;;;0.40;0.20;;;;;;;18.90;100.00;100872.63;5059146;28;20540;-77
2021/07/17 04:50:04;;;;;;;2.30;2.00;;;;;;;18.83;100.00;100876.63;5023459;28;20911;-77
2021/07/17 04:52:31;;;;;;;0.40;0.30;;;;;;;18.84;100.00;100875.66;5031145;28;20430;-77
2021/07/17 04:54:58;;;;;;;0.40;0.20;;;;;;;18.60;100.00;100867.88;5030710;28;20452;-78
2021/07/17 04:57:24;;;;;;;0.50;0.40;;;;;;;18.61;100.00;100872.31;5029677;28;20993;-77
2021/07/17 04:59:51;;;;;;;2.00;1.90;;;;;;;18.82;100.00;100858.72;5047812;28;20454;-77
2021/07/17 05:02:17;;;;;;;0.40;0.30;;;;;;;18.92;100.00;100855.44;5033491;28;20785;-77
2021/07/17 05:04:44;;;;;;;1.37;1.37;;;;;;;18.95;100.00;100865.19;5035583;28;20478;-77
2021/07/17 05:07:11;;;;;;;0.40;0.30;;;;;;;18.82;100.00;100870.34;5035568;28;20844;-78
2021/07/17 05:09:37;;;;;;;0.40;0.20;;;;;;;18.88;100.00;100869.16;5034104;28;20564;-77
2021/07/17 05:12:04;;;;;;;1.13;1.13;;;;;;;18.85;100.00;100870.19;5025337;28;20521;-77
2021/07/17 05:14:31;;;;;;;0.40;0.30;;;;;;;18.70;100.00;100872.84;5035136;28;20488;-77
2021/07/17 05:16:58;;;;;;;2.70;2.60;;;;;;;18.70;100.00;100868.31;5033266;28;20793;-76
2021/07/17 05:19:25;;;;;;;0.87;0.87;;;;;;;18.44;100.00;100883.09;5033245;28;20480;-76
2021/07/17 05:21:51;;;;;;;0.40;0.20;;;;;;;18.68;100.00;100875.59;5041330;28;20952;-76
2021/07/17 05:24:18;;;;;;;0.50;0.40;;;;;;;18.65;100.00;100889.25;5032536;28;20452;-77
2021/07/17 05:26:45;;;;;;;0.40;0.20;;;;;;;18.71;100.00;100888.91;5055761;28;20450;-76
2021/07/17 05:29:12;;;;;;;0.40;0.20;;;;;;;18.75;100.00;100886.91;5059589;28;20881;-77
2021/07/17 05:31:39;;;;;;;0.40;0.20;;;;;;;18.74;100.00;100895.94;5026983;28;20476;-76
2021/07/17 05:34:05;;;;;;;0.40;0.20;;;;;;;18.73;100.00;100888.81;5028558;28;20418;-77
2021/07/17 05:36:32;;;;;;;0.40;0.30;;;;;;;18.59;100.00;100878.75;5033370;28;21012;-76
2021/07/17 05:38:59;;;;;;;4.23;1.90;;;;;;;18.77;100.00;100885.00;5033269;28;21025;-76
2021/07/17 05:41:25;;;;;;;0.40;0.30;;;;;;;18.86;100.00;100881.84;5026296;28;20460;-76
2021/07/17 05:43:52;;;;;;;4.30;0.60;;;;;;;18.78;100.00;100882.25;5060003;28;20452;-76
2021/07/17 05:46:18;;;;;;;0.40;0.30;;;;;;;18.96;100.00;100874.13;5033937;28;20430;-77
2021/07/17 05:48:45;;;;;;;0.40;0.20;;;;;;;18.89;100.00;100882.53;5033120;28;20492;-77
2021/07/17 05:51:12;;;;;;;0.40;0.27;;;;;;;19.11;100.00;100884.09;5030982;28;20569;-76
2021/07/17 05:53:38;;;;;;;0.97;0.93;;;;;;;19.04;100.00;100888.91;5023438;28;20455;-77
2021/07/17 05:56:05;;;;;;;0.40;0.20;;;;;;;19.04;100.00;100888.91;5033001;28;20819;-76
2021/07/17 05:58:32;;;;;;;0.40;0.20;;;;;;;19.04;100.00;100891.59;5021695;28;20419;-76
2021/07/17 06:01:01;;;;;;;0.40;0.20;;;;;;;18.84;100.00;100889.13;5033737;28;20901;-76
2021/07/17 06:03:27;;;;;;;0.57;0.57;;;;;;;18.91;100.00;100885.13;5023323;28;20431;-77
2021/07/17 06:05:54;;;;;;;2.90;2.67;;;;;;;19.01;100.00;100885.53;5030966;28;20459;-76
2021/07/17 06:08:21;;;;;;;0.40;0.20;;;;;;;18.76;100.00;100878.75;5034603;28;20426;-77
2021/07/17 06:10:47;;;;;;;0.40;0.20;;;;;;;18.78;100.00;100878.69;5034631;28;20499;-77
2021/07/17 06:13:14;;;;;;;0.40;0.30;;;;;;;18.83;100.00;100885.56;5021186;28;20470;-77
2021/07/17 06:15:41;;;;;;;8.53;2.00;;;;;;;18.89;100.00;100870.88;5024802;28;20532;-77
2021/07/17 06:18:08;;;;;;;0.40;0.30;;;;;;;18.89;100.00;100852.03;5031818;28;20459;-76
2021/07/17 06:20:34;;;;;;;0.60;0.60;;;;;;;19.00;100.00;100862.22;5043840;28;20492;-77
2021/07/17 06:23:01;;;;;;;0.40;0.30;;;;;;;19.06;100.00;100876.25;5030976;28;20457;-77
2021/07/17 06:25:28;;;;;;;0.40;0.30;;;;;;;18.94;100.00;100882.31;5032434;28;20971;-77
2021/07/17 06:27:54;;;;;;;0.97;0.90;;;;;;;18.98;100.00;100885.69;5033752;28;20430;-76
2021/07/17 06:30:21;;;;;;;0.40;0.20;;;;;;;19.00;100.00;100884.66;5032435;28;20542;-76
2021/07/17 06:32:48;;;;;;;0.40;0.30;;;;;;;19.07;100.00;100894.16;5019110;28;20435;-77
2021/07/17 06:35:14;;;;;;;4.30;1.47;;;;;;;18.87;100.00;100889.81;5023455;28;20822;-77
2021/07/17 06:37:41;;;;;;;0.40;0.30;;;;;;;19.05;100.00;100912.25;5024639;28;20818;-77
2021/07/17 06:40:16;;;;;;;0.40;0.30;;;;;;;19.01;100.00;100904.38;5057589;28;20478;-77
2021/07/17 06:42:48;;;;;;;0.40;0.20;;;;;;;19.12;100.00;100907.38;5063823;28;20944;-76
2021/07/17 06:45:16;;;;;;;0.50;0.50;;;;;;;19.11;100.00;100909.22;5027823;28;20426;-77
2021/07/17 06:47:44;;;;;;;0.57;0.57;;;;;;;19.07;100.00;100904.94;5030923;28;21133;-77
2021/07/17 06:50:12;;;;;;;1.90;1.80;;;;;;;19.38;100.00;100903.25;5026542;28;20893;-77
2021/07/17 06:52:39;;;;;;;0.40;0.40;;;;;;;19.32;100.00;100912.53;5023033;28;20456;-77
2021/07/17 06:55:08;;;;;;;0.40;0.20;;;;;;;19.47;100.00;100914.44;5025968;28;21030;-76
2021/07/17 06:57:36;;;;;;;0.70;0.70;;;;;;;19.37;100.00;100917.72;5012573;28;21088;-77
2021/07/17 07:00:09;;;;;;;0.40;0.30;;;;;;;19.39;100.00;100905.88;5025638;28;20446;-77
2021/07/17 07:02:36;;;;;;;0.40;0.30;;;;;;;19.58;100.00;100921.06;5024586;28;20431;-77
2021/07/17 07:05:05;;;;;;;1.03;1.03;;;;;;;19.38;100.00;100922.13;5028769;28;20542;-77
2021/07/17 07:07:32;;;;;;;0.40;0.30;;;;;;;19.41;100.00;100930.06;5025055;28;20433;-76
2021/07/17 07:10:00;;;;;;;0.40;0.30;;;;;;;19.43;100.00;100929.00;5029078;28;20558;-76
2021/07/17 07:12:26;;;;;;;0.40;0.20;;;;;;;19.62;100.00;100937.00;5033322;28;20457;-77
2021/07/17 07:14:53;;;;;;;0.40;0.20;;;;;;;19.66;100.00;100930.47;5032457;28;20441;-78
2021/07/17 07:17:19;;;;;;;0.40;0.20;;;;;;;19.64;100.00;100937.78;5061440;28;20454;-80
2021/07/17 07:19:46;;;;;;;0.40;0.30;;;;;;;19.83;100.00;100937.59;5026268;28;20464;-79
2021/07/17 07:22:13;;;;;;;0.40;0.30;;;;;;;19.58;100.00;100948.03;5027944;28;20541;-79
2021/07/17 07:24:39;;;;;;;0.40;0.20;;;;;;;19.70;100.00;100941.94;5025144;28;20420;-79
2021/07/17 07:27:08;;;;;;;0.40;0.20;;;;;;;19.71;100.00;100941.88;5027694;28;20451;-79
2021/07/17 07:29:35;;;;;;;0.40;0.30;;;;;;;19.87;100.00;100930.19;5030086;28;20541;-79
2021/07/17 07:32:02;;;;;;;0.50;0.50;;;;;;;20.05;100.00;100932.75;5032735;28;20903;-79
2021/07/17 07:34:30;;;;;;;0.40;0.20;;;;;;;20.14;100.00;100944.81;5019153;28;20440;-78
2021/07/17 07:36:56;;;;;;;0.77;0.77;;;;;;;20.16;100.00;100936.66;5032397;28;20880;-78
2021/07/17 07:39:23;;;;;;;0.40;0.30;;;;;;;20.33;100.00;100942.81;5058843;28;20446;-78
2021/07/17 07:41:50;;;;;;;0.57;0.37;;;;;;;20.40;100.00;100940.59;5023957;28;20430;-78
2021/07/17 07:44:17;;;;;;;0.40;0.20;;;;;;;20.35;100.00;100945.41;5020630;28;20521;-78
2021/07/17 07:46:43;;;;;;;0.40;0.20;;;;;;;20.38;100.00;100943.38;5023929;28;20801;-78
2021/07/17 07:49:10;;;;;;;23.63;2.20;;;;;;;20.34;100.00;100949.06;5024823;28;20448;-78
2021/07/17 07:51:37;;;;;;;0.40;0.20;;;;;;;20.36;100.00;100947.16;5028600;28;20485;-78
2021/07/17 07:54:04;;;;;;;0.40;0.20;;;;;;;20.18;100.00;100946.41;5032606;28;20848;-79
2021/07/17 07:56:30;;;;;;;0.50;0.50;;;;;;;20.34;100.00;100936.44;5046581;28;20435;-79
2021/07/17 07:58:57;;;;;;;0.40;0.20;;;;;;;20.76;100.00;100944.81;5030778;28;20445;-78
2021/07/17 08:01:24;;;;;;;0.40;0.20;;;;;;;20.70;100.00;100946.94;5025633;28;20457;-80
2021/07/17 08:03:51;;;;;;;0.40;0.40;;;;;;;20.82;100.00;100945.28;5019603;28;20526;-78
2021/07/17 08:06:17;;;;;;;0.40;0.30;;;;;;;21.19;100.00;100941.22;5024579;28;20818;-78
2021/07/17 08:08:44;;;;;;;0.50;0.40;;;;;;;21.17;100.00;100940.44;5021680;28;20857;-78
2021/07/17 08:11:11;;;;;;;0.53;0.50;;;;;;;20.99;100.00;100945.16;5031438;28;20454;-78
2021/07/17 08:13:37;;;;;;;0.40;0.20;;;;;;;21.11;100.00;100939.97;5027414;28;20484;-79
2021/07/17 08:16:04;;;;;;;0.40;0.20;;;;;;;20.91;100.00;100943.88;5063165;28;20453;-78
2021/07/17 08:18:31;;;;;;;3.90;2.10;;;;;;;20.83;100.00;100943.47;5019524;28;20515;-78
2021/07/17 08:20:58;;;;;;;0.50;0.40;;;;;;;20.84;100.00;100938.00;5025491;28;20431;-78
2021/07/17 08:23:25;;;;;;;0.50;0.40;;;;;;;21.18;100.00;100933.19;5065914;28;20859;-78
2021/07/17 08:25:52;;;;;;;0.50;0.40;;;;;;;20.76;100.00;100952.91;5033707;28;21258;-78
2021/07/17 08:28:18;;;;;;;1.53;1.20;;;;;;;20.97;100.00;100944.38;5051499;28;20436;-78
2021/07/17 08:30:45;;;;;;;0.40;0.20;;;;;;;21.38;100.00;100940.09;5065043;28;20537;-78
2021/07/17 08:33:12;;;;;;;4.57;0.93;;;;;;;21.39;100.00;100934.59;5028379;28;20451;-77
2021/07/17 08:35:39;;;;;;;8.03;1.13;;;;;;;21.64;100.00;100941.13;5032272;28;20411;-78
2021/07/17 08:38:06;;;;;;;1.60;1.60;;;;;;;21.31;100.00;100938.75;5051646;28;20426;-78
2021/07/17 08:40:32;;;;;;;1.47;1.47;;;;;;;21.47;100.00;100945.78;5031978;28;20501;-78
2021/07/17 08:42:59;;;;;;;0.40;0.20;;;;;;;21.48;100.00;100950.22;5015555;28;20447;-78
2021/07/17 08:45:26;;;;;;;0.50;0.40;;;;;;;21.28;100.00;100956.03;5025617;28;20885;-78
2021/07/17 08:47:54;;;;;;;0.40;0.30;;;;;;;21.26;100.00;100945.31;5032091;28;20443;-78
2021/07/17 08:50:24;;;;;;;2.93;2.73;;;;;;;21.57;99.58;100948.78;5026059;28;20466;-78
2021/07/17 08:52:56;;;;;;;4.00;2.60;;;;;;;21.40;100.00;100946.28;5030802;28;20443;-78
2021/07/17 08:55:25;;;;;;;2.23;2.13;;;;;;;21.56;100.00;100956.03;5029292;28;20452;-77
2021/07/17 08:57:53;;;;;;;10.60;1.50;;;;;;;21.40;100.00;100946.28;5061104;28;20525;-78
2021/07/17 09:00:37;;;;;;;0.40;0.30;;;;;;;21.35;100.00;100940.28;5035523;28;20846;-78
2021/07/17 09:03:07;;;;;;;2.50;2.40;;;;;;;21.32;100.00;100952.16;5061515;28;20543;-79
2021/07/17 09:05:42;;;;;;;0.50;0.50;;;;;;;21.21;100.00;100950.09;5029480;28;20459;-78
2021/07/17 09:08:10;;;;;;;0.40;0.20;;;;;;;21.28;100.00;100945.22;5023020;28;20450;-78
2021/07/17 09:10:47;;;;;;;3.43;1.57;;;;;;;21.28;100.00;100947.94;5027072;28;20525;-79
2021/07/17 09:13:20;;;;;;;1.90;1.80;;;;;;;21.28;100.00;100946.09;5032690;28;20851;-79
2021/07/17 09:16:08;;;;;;;0.73;0.73;;;;;;;21.27;100.00;100944.34;5030459;28;21115;-78
2021/07/17 09:18:35;;;;;;;4.00;2.93;;;;;;;21.15;100.00;100938.81;5029612;28;20447;-79
2021/07/17 09:21:07;;;;;;;1.40;1.40;;;;;;;21.70;100.00;100936.22;5015005;28;20515;-79
2021/07/17 09:23:37;;;;;;;3.30;0.97;;;;;;;21.43;100.00;100930.72;5038572;28;20406;-78
2021/07/17 09:26:09;;;;;;;1.90;0.83;;;;;;;21.84;100.00;100922.66;5046462;28;20414;-79
2021/07/17 09:28:35;;;;;;;0.40;0.30;;;;;;;21.71;100.00;100928.97;5047825;28;20448;-79
2021/07/17 09:31:06;;;;;;;0.50;0.40;;;;;;;21.85;99.62;100921.69;5041281;28;20470;-80
2021/07/17 09:33:32;;;;;;;1.50;1.50;;;;;;;21.91;99.52;100919.53;5038084;28;20461;-79
2021/07/17 09:36:00;;;;;;;1.23;1.13;;;;;;;21.95;99.36;100916.53;5057406;28;20487;-79
2021/07/17 09:38:32;;;;;;;0.63;0.63;;;;;;;22.06;98.33;100922.13;5036625;28;20426;-79
2021/07/17 09:41:07;;;;;;;0.40;0.20;;;;;;;22.31;98.92;100921.34;5053899;28;20494;-78
2021/07/17 09:43:42;;;;;;;0.87;0.87;;;;;;;22.85;97.04;100906.88;5035721;28;20469;-78
2021/07/17 09:46:23;;;;;;;0.40;0.20;;;;;;;22.66;95.71;100909.97;5028080;28;20926;-79
2021/07/17 09:48:59;;;;;;;2.87;2.77;;;;;;;22.64;97.39;100917.34;5021013;28;20466;-78
2021/07/17 09:51:29;;;;;;;0.50;0.50;;;;;;;22.15;98.30;100909.81;5030669;28;20471;-78
2021/07/17 09:54:01;;;;;;;0.50;0.30;;;;;;;22.47;97.63;100910.34;5066692;28;20422;-79
2021/07/17 09:56:31;;;;;;;0.40;0.30;;;;;;;22.75;96.93;100896.66;5035408;28;20443;-78
2021/07/17 09:58:59;;;;;;;0.40;0.20;;;;;;;22.91;95.85;100904.63;5022342;28;20460;-78
2021/07/17 10:01:34;;;;;;;0.40;0.20;;;;;;;22.38;97.40;100886.59;5023112;28;20465;-78
2021/07/17 10:04:12;;;;;;;0.50;0.40;;;;;;;22.88;96.67;100890.38;5027700;28;20467;-78
2021/07/17 10:06:49;;;;;;;0.40;0.30;;;;;;;22.70;97.63;100893.38;5028411;28;20825;-78
2021/07/17 10:09:16;;;;;;;2.70;0.93;;;;;;;23.23;95.96;100896.91;5023377;28;20435;-79
2021/07/17 10:11:50;;;;;;;4.90;0.60;;;;;;;23.10;95.68;100903.31;5021661;28;20455;-78
2021/07/17 10:14:22;;;;;;;0.63;0.63;;;;;;;23.01;95.04;100897.53;5033459;28;20787;-78
2021/07/17 10:16:54;;;;;;;0.50;0.30;;;;;;;22.85;96.07;100894.19;5020255;28;20921;-78
2021/07/17 10:19:27;;;;;;;8.33;3.57;;;;;;;23.27;94.48;100892.09;5022889;28;20821;-78
2021/07/17 10:21:55;;;;;;;9.70;3.27;;;;;;;22.94;96.55;100898.09;5018747;28;20473;-78
2021/07/17 10:24:25;;;;;;;0.53;0.50;;;;;;;22.66;96.05;100896.41;5026912;28;20448;-78
2021/07/17 10:26:52;;;;;;;0.83;0.83;;;;;;;22.80;95.67;100901.75;5022761;28;20506;-78
2021/07/17 10:29:21;;;;;;;1.07;1.07;;;;;;;22.87;96.41;100889.50;5028892;28;20525;-78
2021/07/17 10:31:50;;;;;;;3.43;1.27;;;;;;;23.08;96.10;100884.44;5033356;28;20487;-78
2021/07/17 10:34:18;;;;;;;0.50;0.30;;;;;;;22.98;94.48;100886.91;5020151;28;20449;-78
2021/07/17 10:37:02;;;;;;;3.30;2.20;;;;;;;23.24;93.71;100889.63;5025223;28;20823;-78
2021/07/17 10:40:07;;;;;;;0.40;0.20;;;;;;;23.14;95.07;100881.25;5031681;28;20478;-78
2021/07/17 10:42:35;;;;;;;11.20;2.20;;;;;;;23.56;92.75;100879.13;5011778;28;20447;-78
2021/07/17 10:45:04;;;;;;;1.30;1.30;;;;;;;23.41;92.61;100878.41;5023504;28;20449;-78
2021/07/17 10:47:39;;;;;;;0.40;0.40;;;;;;;23.09;95.12;100883.44;5026821;28;20921;-79
2021/07/17 10:50:08;;;;;;;1.40;1.40;;;;;;;22.75;96.19;100871.34;5021633;28;20484;-79
2021/07/17 10:52:34;;;;;;;0.50;0.43;;;;;;;23.33;93.82;100864.56;5034506;28;20493;-79
2021/07/17 10:55:24;;;;;;;0.43;0.33;;;;;;;23.71;92.69;100864.50;5031863;28;20417;-78
2021/07/17 10:57:51;;;;;;;1.03;1.03;;;;;;;23.97;90.65;100856.22;5031539;28;20449;-78
2021/07/17 11:00:47;;;;;;;2.73;2.53;;;;;;;24.13;89.16;100857.69;5035753;28;20480;-78
2021/07/17 11:03:18;;;;;;;0.40;0.30;;;;;;;23.87;89.68;100858.78;5047010;28;20422;-78
2021/07/17 11:05:46;;;;;;;0.40;0.30;;;;;;;24.40;88.06;100854.72;5070613;28;20463;-78
2021/07/17 11:08:32;;;;;;;2.07;1.90;;;;;;;24.30;87.08;100856.41;5054781;28;20453;-78
2021/07/17 11:11:20;;;;;;;1.33;1.00;;;;;;;24.38;89.63;100853.97;5054568;28;20481;-78
2021/07/17 11:13:47;;;;;;;1.07;0.80;;;;;;;24.31;89.77;100854.56;5043704;28;20455;-79
2021/07/17 11:16:40;;;;;;;0.50;0.40;;;;;;;24.34;89.37;100843.44;5053322;28;20428;-78
2021/07/17 11:19:28;;;;;;;0.53;0.53;;;;;;;24.37;89.98;100854.94;5044893;28;20453;-79
2021/07/17 11:22:07;;;;;;;0.60;0.40;;;;;;;24.40;89.62;100851.16;5046460;28;20440;-78
2021/07/17 11:24:34;;;;;;;0.50;0.50;;;;;;;24.56;86.70;100845.38;5052568;28;20432;-77